Terminal Aerodrome Forecast
Issued by NWS Grand Forks, ND

Home | Current Version | Previous Version | Text Only | Print | Product List | Glossary On
Versions: 1 2 3 4 5 6 7 8 9 10 11 12 13 14 15 16 17 18 19 20 21 22
000
FTUS43 KFGF 161723 AAD
TAFGFK
TAF AMD
KGFK 161723Z 1617/1718 VRB06KT P6SM VCSH OVC008
      TEMPO 1619/1621 OVC015
     FM162100 02007KT P6SM BKN015
     FM162300 02007KT P6SM BKN020
     FM170300 02005KT P6SM SCT030
     FM171600 34006KT P6SM FEW130=

USA.gov is the U.S. government's official web portal to all federal, state and local government web resources and services.